sensor_id;sensor_type;location;lat;lon;timestamp;P1;durP1;ratioP1;P2;durP2;ratioP2
78674;SDS011;67990;59.826;30.108;2023-06-22T00:01:31;9.15;;;5.32;;
78674;SDS011;67990;59.826;30.108;2023-06-22T00:03:58;9.98;;;5.10;;
78674;SDS011;67990;59.826;30.108;2023-06-22T00:12:16;10.53;;;5.20;;
78674;SDS011;67990;59.826;30.108;2023-06-22T00:14:43;8.60;;;5.00;;
78674;SDS011;67990;59.826;30.108;2023-06-22T00:17:11;9.52;;;5.03;;
78674;SDS011;67990;59.826;30.108;2023-06-22T00:19:38;10.30;;;5.22;;
78674;SDS011;67990;59.826;30.108;2023-06-22T00:22:07;9.18;;;4.97;;
78674;SDS011;67990;59.826;30.108;2023-06-22T00:24:34;10.68;;;4.97;;
78674;SDS011;67990;59.826;30.108;2023-06-22T00:27:02;13.10;;;5.53;;
78674;SDS011;67990;59.826;30.108;2023-06-22T00:29:46;8.32;;;4.75;;
78674;SDS011;67990;59.826;30.108;2023-06-22T00:35:35;8.98;;;4.82;;
78674;SDS011;67990;59.826;30.108;2023-06-22T00:38:04;8.98;;;5.25;;
78674;SDS011;67990;59.826;30.108;2023-06-22T00:40:31;8.93;;;4.87;;
78674;SDS011;67990;59.826;30.108;2023-06-22T00:42:59;11.13;;;5.23;;
78674;SDS011;67990;59.826;30.108;2023-06-22T00:45:26;7.68;;;4.82;;
78674;SDS011;67990;59.826;30.108;2023-06-22T00:50:40;9.02;;;5.70;;
78674;SDS011;67990;59.826;30.108;2023-06-22T00:56:13;8.00;;;4.57;;
78674;SDS011;67990;59.826;30.108;2023-06-22T00:58:44;9.60;;;5.07;;
78674;SDS011;67990;59.826;30.108;2023-06-22T01:01:12;8.82;;;5.32;;
78674;SDS011;67990;59.826;30.108;2023-06-22T01:03:40;9.07;;;6.10;;
78674;SDS011;67990;59.826;30.108;2023-06-22T01:06:29;9.07;;;5.45;;
78674;SDS011;67990;59.826;30.108;2023-06-22T01:14:42;8.18;;;4.88;;
78674;SDS011;67990;59.826;30.108;2023-06-22T01:17:17;8.77;;;5.03;;
78674;SDS011;67990;59.826;30.108;2023-06-22T01:22:40;8.80;;;5.03;;
78674;SDS011;67990;59.826;30.108;2023-06-22T01:25:20;10.17;;;4.83;;
78674;SDS011;67990;59.826;30.108;2023-06-22T01:27:54;12.63;;;5.38;;
78674;SDS011;67990;59.826;30.108;2023-06-22T01:30:31;9.23;;;5.47;;
78674;SDS011;67990;59.826;30.108;2023-06-22T01:33:03;10.45;;;5.28;;
78674;SDS011;67990;59.826;30.108;2023-06-22T01:35:31;9.07;;;5.40;;
78674;SDS011;67990;59.826;30.108;2023-06-22T01:38:18;9.03;;;5.30;;
78674;SDS011;67990;59.826;30.108;2023-06-22T01:43:53;10.95;;;5.43;;
78674;SDS011;67990;59.826;30.108;2023-06-22T01:46:22;9.05;;;6.13;;
78674;SDS011;67990;59.826;30.108;2023-06-22T01:49:07;11.43;;;5.47;;
78674;SDS011;67990;59.826;30.108;2023-06-22T01:51:52;10.30;;;5.97;;
78674;SDS011;67990;59.826;30.108;2023-06-22T01:54:39;10.40;;;5.30;;
78674;SDS011;67990;59.826;30.108;2023-06-22T02:00:11;10.00;;;5.43;;
78674;SDS011;67990;59.826;30.108;2023-06-22T02:03:01;10.05;;;5.30;;
78674;SDS011;67990;59.826;30.108;2023-06-22T02:05:33;10.88;;;5.35;;
78674;SDS011;67990;59.826;30.108;2023-06-22T02:08:22;8.82;;;5.18;;
78674;SDS011;67990;59.826;30.108;2023-06-22T02:10:54;12.90;;;5.30;;
78674;SDS011;67990;59.826;30.108;2023-06-22T02:13:25;12.10;;;5.20;;
78674;SDS011;67990;59.826;30.108;2023-06-22T02:15:53;8.68;;;5.15;;
78674;SDS011;67990;59.826;30.108;2023-06-22T02:18:22;10.63;;;5.10;;
78674;SDS011;67990;59.826;30.108;2023-06-22T02:20:49;9.52;;;4.57;;
78674;SDS011;67990;59.826;30.108;2023-06-22T02:23:16;9.68;;;4.80;;
78674;SDS011;67990;59.826;30.108;2023-06-22T02:25:43;9.37;;;5.50;;
78674;SDS011;67990;59.826;30.108;2023-06-22T02:30:56;7.88;;;4.65;;
78674;SDS011;67990;59.826;30.108;2023-06-22T02:33:44;8.82;;;4.75;;
78674;SDS011;67990;59.826;30.108;2023-06-22T02:36:11;7.93;;;4.93;;
78674;SDS011;67990;59.826;30.108;2023-06-22T02:38:56;9.27;;;4.80;;
78674;SDS011;67990;59.826;30.108;2023-06-22T02:41:42;10.57;;;5.10;;
78674;SDS011;67990;59.826;30.108;2023-06-22T02:44:28;8.07;;;4.70;;
78674;SDS011;67990;59.826;30.108;2023-06-22T02:46:55;8.13;;;5.43;;
78674;SDS011;67990;59.826;30.108;2023-06-22T02:52:10;9.45;;;5.40;;
78674;SDS011;67990;59.826;30.108;2023-06-22T02:54:55;10.40;;;4.67;;
78674;SDS011;67990;59.826;30.108;2023-06-22T02:57:23;8.53;;;5.00;;
78674;SDS011;67990;59.826;30.108;2023-06-22T02:59:50;9.68;;;4.50;;
78674;SDS011;67990;59.826;30.108;2023-06-22T03:02:35;8.85;;;5.57;;
78674;SDS011;67990;59.826;30.108;2023-06-22T03:05:22;8.27;;;4.93;;
78674;SDS011;67990;59.826;30.108;2023-06-22T03:07:50;9.65;;;5.35;;
78674;SDS011;67990;59.826;30.108;2023-06-22T03:10:35;8.43;;;5.30;;
78674;SDS011;67990;59.826;30.108;2023-06-22T03:13:02;7.90;;;5.10;;
78674;SDS011;67990;59.826;30.108;2023-06-22T03:15:30;7.40;;;4.72;;
78674;SDS011;67990;59.826;30.108;2023-06-22T03:18:15;7.47;;;5.03;;
78674;SDS011;67990;59.826;30.108;2023-06-22T03:20:44;7.35;;;5.70;;
78674;SDS011;67990;59.826;30.108;2023-06-22T03:23:11;8.68;;;5.47;;
78674;SDS011;67990;59.826;30.108;2023-06-22T03:25:56;9.18;;;5.70;;
78674;SDS011;67990;59.826;30.108;2023-06-22T03:28:41;8.97;;;5.60;;
78674;SDS011;67990;59.826;30.108;2023-06-22T03:31:08;9.97;;;5.67;;
78674;SDS011;67990;59.826;30.108;2023-06-22T03:36:25;9.50;;;5.47;;
78674;SDS011;67990;59.826;30.108;2023-06-22T03:38:52;9.98;;;6.05;;
78674;SDS011;67990;59.826;30.108;2023-06-22T03:41:37;9.88;;;5.10;;
78674;SDS011;67990;59.826;30.108;2023-06-22T03:47:28;8.73;;;6.13;;
78674;SDS011;67990;59.826;30.108;2023-06-22T03:49:57;11.82;;;5.60;;
78674;SDS011;67990;59.826;30.108;2023-06-22T03:52:25;9.32;;;5.82;;
78674;SDS011;67990;59.826;30.108;2023-06-22T03:54:52;9.50;;;6.55;;
78674;SDS011;67990;59.826;30.108;2023-06-22T03:57:19;9.65;;;6.38;;
78674;SDS011;67990;59.826;30.108;2023-06-22T04:02:38;11.40;;;6.20;;
78674;SDS011;67990;59.826;30.108;2023-06-22T04:05:05;11.33;;;6.53;;
78674;SDS011;67990;59.826;30.108;2023-06-22T04:07:52;11.13;;;6.32;;
78674;SDS011;67990;59.826;30.108;2023-06-22T04:10:20;12.05;;;7.03;;
78674;SDS011;67990;59.826;30.108;2023-06-22T04:12:47;8.65;;;6.13;;
78674;SDS011;67990;59.826;30.108;2023-06-22T04:15:14;10.95;;;5.97;;
78674;SDS011;67990;59.826;30.108;2023-06-22T04:20:27;11.30;;;6.13;;
78674;SDS011;67990;59.826;30.108;2023-06-22T04:22:56;9.30;;;6.03;;
78674;SDS011;67990;59.826;30.108;2023-06-22T04:25:23;7.63;;;6.13;;
78674;SDS011;67990;59.826;30.108;2023-06-22T04:27:50;10.60;;;7.30;;
78674;SDS011;67990;59.826;30.108;2023-06-22T04:30:17;12.48;;;6.57;;
78674;SDS011;67990;59.826;30.108;2023-06-22T04:32:44;9.38;;;7.05;;
78674;SDS011;67990;59.826;30.108;2023-06-22T04:35:29;9.13;;;6.30;;
78674;SDS011;67990;59.826;30.108;2023-06-22T04:37:58;10.15;;;7.68;;
78674;SDS011;67990;59.826;30.108;2023-06-22T04:40:43;9.60;;;7.78;;
78674;SDS011;67990;59.826;30.108;2023-06-22T04:43:10;13.75;;;8.63;;
78674;SDS011;67990;59.826;30.108;2023-06-22T04:45:38;11.63;;;7.90;;
78674;SDS011;67990;59.826;30.108;2023-06-22T04:48:05;9.90;;;8.80;;
78674;SDS011;67990;59.826;30.108;2023-06-22T04:50:53;8.67;;;7.77;;
78674;SDS011;67990;59.826;30.108;2023-06-22T04:53:21;10.83;;;8.67;;
78674;SDS011;67990;59.826;30.108;2023-06-22T04:56:06;11.77;;;8.45;;
78674;SDS011;67990;59.826;30.108;2023-06-22T04:58:34;12.18;;;8.35;;
78674;SDS011;67990;59.826;30.108;2023-06-22T05:01:01;9.73;;;8.73;;
78674;SDS011;67990;59.826;30.108;2023-06-22T05:03:29;10.48;;;8.10;;
78674;SDS011;67990;59.826;30.108;2023-06-22T05:05:56;12.13;;;8.03;;
78674;SDS011;67990;59.826;30.108;2023-06-22T05:08:24;9.10;;;7.70;;
78674;SDS011;67990;59.826;30.108;2023-06-22T05:10:54;10.48;;;7.50;;
78674;SDS011;67990;59.826;30.108;2023-06-22T05:13:21;10.52;;;7.28;;
78674;SDS011;67990;59.826;30.108;2023-06-22T05:16:05;8.95;;;7.93;;
78674;SDS011;67990;59.826;30.108;2023-06-22T05:18:54;10.65;;;9.00;;
78674;SDS011;67990;59.826;30.108;2023-06-22T05:21:21;10.77;;;9.13;;
78674;SDS011;67990;59.826;30.108;2023-06-22T05:24:09;9.40;;;8.43;;
78674;SDS011;67990;59.826;30.108;2023-06-22T05:26:37;13.07;;;9.40;;
78674;SDS011;67990;59.826;30.108;2023-06-22T05:29:04;10.75;;;8.93;;
78674;SDS011;67990;59.826;30.108;2023-06-22T05:34:17;10.43;;;9.13;;
78674;SDS011;67990;59.826;30.108;2023-06-22T05:36:45;12.43;;;11.17;;
78674;SDS011;67990;59.826;30.108;2023-06-22T05:42:17;11.55;;;10.25;;
78674;SDS011;67990;59.826;30.108;2023-06-22T05:45:03;12.35;;;10.25;;
78674;SDS011;67990;59.826;30.108;2023-06-22T05:50:35;12.70;;;10.87;;
78674;SDS011;67990;59.826;30.108;2023-06-22T05:53:21;23.60;;;11.65;;
78674;SDS011;67990;59.826;30.108;2023-06-22T05:55:49;12.10;;;10.88;;
78674;SDS011;67990;59.826;30.108;2023-06-22T06:01:03;12.10;;;10.82;;
78674;SDS011;67990;59.826;30.108;2023-06-22T06:03:30;13.47;;;12.13;;
78674;SDS011;67990;59.826;30.108;2023-06-22T06:05:57;14.57;;;12.52;;
78674;SDS011;67990;59.826;30.108;2023-06-22T06:08:24;15.02;;;13.48;;
78674;SDS011;67990;59.826;30.108;2023-06-22T06:10:53;13.38;;;11.75;;
78674;SDS011;67990;59.826;30.108;2023-06-22T06:13:20;15.88;;;13.02;;
78674;SDS011;67990;59.826;30.108;2023-06-22T06:15:47;14.53;;;13.10;;
78674;SDS011;67990;59.826;30.108;2023-06-22T06:18:16;14.55;;;13.25;;
78674;SDS011;67990;59.826;30.108;2023-06-22T06:20:44;16.88;;;15.07;;
78674;SDS011;67990;59.826;30.108;2023-06-22T06:23:11;14.43;;;12.98;;
78674;SDS011;67990;59.826;30.108;2023-06-22T06:25:38;16.33;;;14.98;;
78674;SDS011;67990;59.826;30.108;2023-06-22T06:30:52;13.20;;;11.95;;
78674;SDS011;67990;59.826;30.108;2023-06-22T06:33:20;15.60;;;14.15;;
78674;SDS011;67990;59.826;30.108;2023-06-22T06:38:33;14.10;;;12.38;;
78674;SDS011;67990;59.826;30.108;2023-06-22T06:41:19;14.30;;;12.37;;
78674;SDS011;67990;59.826;30.108;2023-06-22T06:43:48;14.00;;;12.70;;
78674;SDS011;67990;59.826;30.108;2023-06-22T06:49:19;13.43;;;12.23;;
78674;SDS011;67990;59.826;30.108;2023-06-22T06:54:50;13.93;;;12.63;;
78674;SDS011;67990;59.826;30.108;2023-06-22T06:57:18;13.95;;;12.65;;
78674;SDS011;67990;59.826;30.108;2023-06-22T06:59:47;14.45;;;13.15;;
78674;SDS011;67990;59.826;30.108;2023-06-22T07:02:14;14.65;;;13.25;;
78674;SDS011;67990;59.826;30.108;2023-06-22T07:05:00;14.75;;;13.45;;
78674;SDS011;67990;59.826;30.108;2023-06-22T07:07:28;15.77;;;14.47;;
78674;SDS011;67990;59.826;30.108;2023-06-22T07:10:13;15.90;;;14.45;;
78674;SDS011;67990;59.826;30.108;2023-06-22T07:12:41;14.52;;;13.32;;
78674;SDS011;67990;59.826;30.108;2023-06-22T07:15:28;16.15;;;14.55;;
78674;SDS011;67990;59.826;30.108;2023-06-22T07:18:14;16.73;;;14.82;;
78674;SDS011;67990;59.826;30.108;2023-06-22T07:20:41;13.50;;;12.13;;
78674;SDS011;67990;59.826;30.108;2023-06-22T07:25:54;11.80;;;10.70;;
78674;SDS011;67990;59.826;30.108;2023-06-22T07:28:21;11.20;;;10.20;;
78674;SDS011;67990;59.826;30.108;2023-06-22T07:31:07;12.82;;;11.48;;
78674;SDS011;67990;59.826;30.108;2023-06-22T07:33:34;12.37;;;11.13;;
78674;SDS011;67990;59.826;30.108;2023-06-22T07:36:01;11.50;;;10.40;;
78674;SDS011;67990;59.826;30.108;2023-06-22T07:41:38;10.75;;;9.75;;
78674;SDS011;67990;59.826;30.108;2023-06-22T07:44:06;12.60;;;11.40;;
78674;SDS011;67990;59.826;30.108;2023-06-22T07:49:38;12.80;;;11.52;;
78674;SDS011;67990;59.826;30.108;2023-06-22T07:52:06;12.82;;;11.63;;
78674;SDS011;67990;59.826;30.108;2023-06-22T07:54:33;12.90;;;11.73;;
78674;SDS011;67990;59.826;30.108;2023-06-22T07:57:00;12.95;;;11.70;;
78674;SDS011;67990;59.826;30.108;2023-06-22T07:59:27;14.73;;;12.20;;
78674;SDS011;67990;59.826;30.108;2023-06-22T08:02:15;13.15;;;11.82;;
78674;SDS011;67990;59.826;30.108;2023-06-22T08:04:42;14.07;;;12.63;;
78674;SDS011;67990;59.826;30.108;2023-06-22T08:07:28;12.07;;;10.55;;
78674;SDS011;67990;59.826;30.108;2023-06-22T08:09:58;13.30;;;11.75;;
78674;SDS011;67990;59.826;30.108;2023-06-22T08:12:25;12.70;;;11.37;;
78674;SDS011;67990;59.826;30.108;2023-06-22T08:20:43;12.48;;;10.38;;
78674;SDS011;67990;59.826;30.108;2023-06-22T08:23:10;12.88;;;11.32;;
78674;SDS011;67990;59.826;30.108;2023-06-22T08:29:00;13.38;;;11.00;;
78674;SDS011;67990;59.826;30.108;2023-06-22T08:31:27;12.18;;;10.98;;
78674;SDS011;67990;59.826;30.108;2023-06-22T08:33:56;12.80;;;10.38;;
78674;SDS011;67990;59.826;30.108;2023-06-22T08:36:41;12.07;;;10.50;;
78674;SDS011;67990;59.826;30.108;2023-06-22T08:39:10;11.73;;;10.63;;
78674;SDS011;67990;59.826;30.108;2023-06-22T08:41:54;11.00;;;9.95;;
78674;SDS011;67990;59.826;30.108;2023-06-22T08:44:22;11.25;;;10.02;;
78674;SDS011;67990;59.826;30.108;2023-06-22T08:47:27;12.10;;;10.77;;
78674;SDS011;67990;59.826;30.108;2023-06-22T08:50:13;10.60;;;9.55;;
78674;SDS011;67990;59.826;30.108;2023-06-22T08:52:40;11.50;;;9.80;;
78674;SDS011;67990;59.826;30.108;2023-06-22T08:55:08;13.18;;;9.85;;
78674;SDS011;67990;59.826;30.108;2023-06-22T08:57:36;12.57;;;10.38;;
78674;SDS011;67990;59.826;30.108;2023-06-22T09:00:05;10.02;;;9.13;;
78674;SDS011;67990;59.826;30.108;2023-06-22T09:02:41;11.13;;;9.82;;
78674;SDS011;67990;59.826;30.108;2023-06-22T09:05:09;13.33;;;9.07;;
78674;SDS011;67990;59.826;30.108;2023-06-22T09:07:37;11.35;;;9.50;;
78674;SDS011;67990;59.826;30.108;2023-06-22T09:10:05;11.02;;;9.35;;
78674;SDS011;67990;59.826;30.108;2023-06-22T09:12:33;12.18;;;9.55;;
78674;SDS011;67990;59.826;30.108;2023-06-22T09:15:18;12.98;;;9.27;;
78674;SDS011;67990;59.826;30.108;2023-06-22T09:17:46;11.13;;;8.60;;
78674;SDS011;67990;59.826;30.108;2023-06-22T09:20:13;9.52;;;8.63;;
78674;SDS011;67990;59.826;30.108;2023-06-22T09:22:42;11.88;;;8.82;;
78674;SDS011;67990;59.826;30.108;2023-06-22T09:25:09;10.15;;;8.27;;
78674;SDS011;67990;59.826;30.108;2023-06-22T09:27:36;13.02;;;10.75;;
78674;SDS011;67990;59.826;30.108;2023-06-22T09:32:49;19.05;;;9.68;;
78674;SDS011;67990;59.826;30.108;2023-06-22T09:35:17;13.00;;;8.82;;
78674;SDS011;67990;59.826;30.108;2023-06-22T09:37:46;25.83;;;13.15;;
78674;SDS011;67990;59.826;30.108;2023-06-22T09:40:32;14.73;;;9.95;;
78674;SDS011;67990;59.826;30.108;2023-06-22T09:43:00;13.57;;;9.27;;
78674;SDS011;67990;59.826;30.108;2023-06-22T09:45:28;13.53;;;8.83;;
78674;SDS011;67990;59.826;30.108;2023-06-22T09:47:55;8.90;;;7.78;;
78674;SDS011;67990;59.826;30.108;2023-06-22T09:50:22;12.48;;;8.55;;
78674;SDS011;67990;59.826;30.108;2023-06-22T09:52:51;10.65;;;7.95;;
78674;SDS011;67990;59.826;30.108;2023-06-22T09:55:20;9.75;;;8.43;;
78674;SDS011;67990;59.826;30.108;2023-06-22T09:57:47;12.67;;;8.47;;
78674;SDS011;67990;59.826;30.108;2023-06-22T10:00:17;9.40;;;7.40;;
78674;SDS011;67990;59.826;30.108;2023-06-22T10:03:03;9.48;;;7.57;;
78674;SDS011;67990;59.826;30.108;2023-06-22T10:05:30;10.82;;;7.25;;
78674;SDS011;67990;59.826;30.108;2023-06-22T10:08:16;9.57;;;6.97;;
78674;SDS011;67990;59.826;30.108;2023-06-22T10:10:43;7.20;;;6.43;;
78674;SDS011;67990;59.826;30.108;2023-06-22T10:13:10;10.23;;;6.97;;
78674;SDS011;67990;59.826;30.108;2023-06-22T10:15:38;10.57;;;6.53;;
78674;SDS011;67990;59.826;30.108;2023-06-22T10:18:05;11.48;;;7.00;;
78674;SDS011;67990;59.826;30.108;2023-06-22T10:20:33;10.93;;;5.93;;
78674;SDS011;67990;59.826;30.108;2023-06-22T10:23:01;10.20;;;6.80;;
78674;SDS011;67990;59.826;30.108;2023-06-22T10:25:29;10.70;;;6.53;;
78674;SDS011;67990;59.826;30.108;2023-06-22T10:27:56;9.67;;;6.37;;
78674;SDS011;67990;59.826;30.108;2023-06-22T10:30:24;9.27;;;6.38;;
78674;SDS011;67990;59.826;30.108;2023-06-22T10:32:51;9.70;;;6.53;;
78674;SDS011;67990;59.826;30.108;2023-06-22T10:35:36;11.20;;;6.88;;
78674;SDS011;67990;59.826;30.108;2023-06-22T10:38:04;9.80;;;6.32;;
78674;SDS011;67990;59.826;30.108;2023-06-22T10:40:33;10.90;;;7.00;;
78674;SDS011;67990;59.826;30.108;2023-06-22T10:43:00;9.87;;;6.83;;
78674;SDS011;67990;59.826;30.108;2023-06-22T10:45:27;8.50;;;6.60;;
78674;SDS011;67990;59.826;30.108;2023-06-22T10:47:56;6.97;;;6.10;;
78674;SDS011;67990;59.826;30.108;2023-06-22T10:53:26;11.35;;;6.65;;
78674;SDS011;67990;59.826;30.108;2023-06-22T10:55:54;8.87;;;5.87;;
78674;SDS011;67990;59.826;30.108;2023-06-22T11:01:08;11.40;;;7.45;;
78674;SDS011;67990;59.826;30.108;2023-06-22T11:03:36;10.48;;;6.50;;
78674;SDS011;67990;59.826;30.108;2023-06-22T11:06:20;12.25;;;7.43;;
78674;SDS011;67990;59.826;30.108;2023-06-22T11:08:47;10.02;;;7.65;;
78674;SDS011;67990;59.826;30.108;2023-06-22T11:11:16;11.75;;;8.48;;
78674;SDS011;67990;59.826;30.108;2023-06-22T11:13:44;9.53;;;7.60;;
78674;SDS011;67990;59.826;30.108;2023-06-22T11:16:29;14.50;;;9.37;;
78674;SDS011;67990;59.826;30.108;2023-06-22T11:18:57;11.68;;;8.60;;
78674;SDS011;67990;59.826;30.108;2023-06-22T11:21:24;10.70;;;7.43;;
78674;SDS011;67990;59.826;30.108;2023-06-22T11:26:39;9.93;;;7.47;;
78674;SDS011;67990;59.826;30.108;2023-06-22T11:29:06;10.18;;;7.38;;
78674;SDS011;67990;59.826;30.108;2023-06-22T11:31:33;10.80;;;6.90;;
78674;SDS011;67990;59.826;30.108;2023-06-22T11:34:19;9.27;;;7.17;;
78674;SDS011;67990;59.826;30.108;2023-06-22T11:36:46;8.40;;;6.20;;
78674;SDS011;67990;59.826;30.108;2023-06-22T11:39:13;11.43;;;7.95;;
78674;SDS011;67990;59.826;30.108;2023-06-22T11:41:42;10.25;;;7.82;;
78674;SDS011;67990;59.826;30.108;2023-06-22T11:44:09;10.05;;;7.72;;
78674;SDS011;67990;59.826;30.108;2023-06-22T11:46:55;11.43;;;8.02;;
78674;SDS011;67990;59.826;30.108;2023-06-22T11:49:22;11.07;;;8.73;;
78674;SDS011;67990;59.826;30.108;2023-06-22T11:51:49;11.63;;;8.67;;
78674;SDS011;67990;59.826;30.108;2023-06-22T11:54:16;12.00;;;8.20;;
78674;SDS011;67990;59.826;30.108;2023-06-22T11:56:45;11.73;;;8.30;;
78674;SDS011;67990;59.826;30.108;2023-06-22T11:59:12;11.32;;;7.65;;
78674;SDS011;67990;59.826;30.108;2023-06-22T12:01:39;12.13;;;7.85;;
78674;SDS011;67990;59.826;30.108;2023-06-22T12:04:06;11.83;;;7.60;;
78674;SDS011;67990;59.826;30.108;2023-06-22T12:06:37;12.73;;;8.10;;
78674;SDS011;67990;59.826;30.108;2023-06-22T12:09:07;15.93;;;9.88;;
78674;SDS011;67990;59.826;30.108;2023-06-22T12:11:34;14.88;;;10.30;;
78674;SDS011;67990;59.826;30.108;2023-06-22T12:14:03;16.48;;;9.48;;
78674;SDS011;67990;59.826;30.108;2023-06-22T12:16:31;12.85;;;10.00;;
78674;SDS011;67990;59.826;30.108;2023-06-22T12:18:58;12.82;;;9.75;;
78674;SDS011;67990;59.826;30.108;2023-06-22T12:21:26;15.40;;;9.13;;
78674;SDS011;67990;59.826;30.108;2023-06-22T12:23:54;13.95;;;8.43;;
78674;SDS011;67990;59.826;30.108;2023-06-22T12:26:21;14.98;;;8.90;;
78674;SDS011;67990;59.826;30.108;2023-06-22T12:28:48;12.30;;;8.80;;
78674;SDS011;67990;59.826;30.108;2023-06-22T12:31:17;13.68;;;9.13;;
78674;SDS011;67990;59.826;30.108;2023-06-22T12:33:44;11.40;;;8.50;;
78674;SDS011;67990;59.826;30.108;2023-06-22T12:36:11;21.17;;;9.30;;
78674;SDS011;67990;59.826;30.108;2023-06-22T12:38:56;16.08;;;9.15;;
78674;SDS011;67990;59.826;30.108;2023-06-22T12:44:09;16.23;;;9.52;;
78674;SDS011;67990;59.826;30.108;2023-06-22T12:46:38;17.58;;;8.73;;
78674;SDS011;67990;59.826;30.108;2023-06-22T12:49:05;14.35;;;8.55;;
78674;SDS011;67990;59.826;30.108;2023-06-22T12:51:33;10.67;;;7.90;;
78674;SDS011;67990;59.826;30.108;2023-06-22T12:54:00;10.45;;;7.82;;
78674;SDS011;67990;59.826;30.108;2023-06-22T12:56:27;10.15;;;7.80;;
78674;SDS011;67990;59.826;30.108;2023-06-22T12:58:55;12.57;;;8.43;;
78674;SDS011;67990;59.826;30.108;2023-06-22T13:01:23;15.07;;;8.82;;
78674;SDS011;67990;59.826;30.108;2023-06-22T13:04:10;13.13;;;8.75;;
78674;SDS011;67990;59.826;30.108;2023-06-22T13:06:40;18.60;;;9.57;;
78674;SDS011;67990;59.826;30.108;2023-06-22T13:09:07;14.47;;;9.13;;
78674;SDS011;67990;59.826;30.108;2023-06-22T13:11:35;11.57;;;8.73;;
78674;SDS011;67990;59.826;30.108;2023-06-22T13:14:02;14.43;;;8.68;;
78674;SDS011;67990;59.826;30.108;2023-06-22T13:16:30;13.32;;;8.40;;
78674;SDS011;67990;59.826;30.108;2023-06-22T13:18:57;12.25;;;8.80;;
78674;SDS011;67990;59.826;30.108;2023-06-22T13:21:25;13.13;;;9.40;;
78674;SDS011;67990;59.826;30.108;2023-06-22T13:23:53;11.37;;;8.53;;
78674;SDS011;67990;59.826;30.108;2023-06-22T13:29:06;12.48;;;9.65;;
78674;SDS011;67990;59.826;30.108;2023-06-22T13:31:52;13.23;;;9.35;;
78674;SDS011;67990;59.826;30.108;2023-06-22T13:34:36;11.70;;;8.98;;
78674;SDS011;67990;59.826;30.108;2023-06-22T13:37:05;12.18;;;9.77;;
78674;SDS011;67990;59.826;30.108;2023-06-22T13:40:09;16.47;;;9.67;;
78674;SDS011;67990;59.826;30.108;2023-06-22T13:42:36;16.20;;;11.20;;
78674;SDS011;67990;59.826;30.108;2023-06-22T13:45:06;16.08;;;12.25;;
78674;SDS011;67990;59.826;30.108;2023-06-22T13:47:36;14.73;;;10.88;;
78674;SDS011;67990;59.826;30.108;2023-06-22T13:50:04;12.70;;;10.13;;
78674;SDS011;67990;59.826;30.108;2023-06-22T13:52:34;22.77;;;11.00;;
78674;SDS011;67990;59.826;30.108;2023-06-22T13:57:47;17.83;;;10.83;;
78674;SDS011;67990;59.826;30.108;2023-06-22T14:00:14;16.80;;;11.57;;
78674;SDS011;67990;59.826;30.108;2023-06-22T14:02:43;22.85;;;15.77;;
78674;SDS011;67990;59.826;30.108;2023-06-22T14:05:10;23.88;;;14.57;;
78674;SDS011;67990;59.826;30.108;2023-06-22T14:07:57;16.02;;;11.23;;
78674;SDS011;67990;59.826;30.108;2023-06-22T14:10:24;15.40;;;10.53;;
78674;SDS011;67990;59.826;30.108;2023-06-22T14:12:51;15.77;;;10.57;;
78674;SDS011;67990;59.826;30.108;2023-06-22T14:15:19;12.93;;;9.07;;
78674;SDS011;67990;59.826;30.108;2023-06-22T14:17:46;13.10;;;9.23;;
78674;SDS011;67990;59.826;30.108;2023-06-22T14:20:13;10.52;;;8.32;;
78674;SDS011;67990;59.826;30.108;2023-06-22T14:22:40;10.50;;;7.90;;
78674;SDS011;67990;59.826;30.108;2023-06-22T14:25:09;11.40;;;7.33;;
78674;SDS011;67990;59.826;30.108;2023-06-22T14:27:36;15.67;;;7.77;;
78674;SDS011;67990;59.826;30.108;2023-06-22T14:30:04;11.50;;;7.85;;
78674;SDS011;67990;59.826;30.108;2023-06-22T14:32:51;14.18;;;8.45;;
78674;SDS011;67990;59.826;30.108;2023-06-22T14:35:18;11.13;;;8.57;;
78674;SDS011;67990;59.826;30.108;2023-06-22T14:37:46;11.18;;;8.43;;
78674;SDS011;67990;59.826;30.108;2023-06-22T14:40:16;11.80;;;8.43;;
78674;SDS011;67990;59.826;30.108;2023-06-22T14:42:43;10.33;;;8.03;;
78674;SDS011;67990;59.826;30.108;2023-06-22T14:45:12;10.85;;;7.55;;
78674;SDS011;67990;59.826;30.108;2023-06-22T14:47:40;11.60;;;8.10;;
78674;SDS011;67990;59.826;30.108;2023-06-22T14:50:07;13.32;;;9.80;;
78674;SDS011;67990;59.826;30.108;2023-06-22T14:52:36;11.80;;;8.50;;
78674;SDS011;67990;59.826;30.108;2023-06-22T14:55:03;12.60;;;8.97;;
78674;SDS011;67990;59.826;30.108;2023-06-22T14:57:32;11.50;;;8.90;;
78674;SDS011;67990;59.826;30.108;2023-06-22T14:59:59;12.52;;;9.20;;
78674;SDS011;67990;59.826;30.108;2023-06-22T15:02:46;10.90;;;7.90;;
78674;SDS011;67990;59.826;30.108;2023-06-22T15:05:14;10.82;;;7.80;;
78674;SDS011;67990;59.826;30.108;2023-06-22T15:07:41;11.45;;;7.80;;
78674;SDS011;67990;59.826;30.108;2023-06-22T15:10:26;11.77;;;7.63;;
78674;SDS011;67990;59.826;30.108;2023-06-22T15:12:55;11.83;;;8.37;;
78674;SDS011;67990;59.826;30.108;2023-06-22T15:15:22;11.88;;;7.93;;
78674;SDS011;67990;59.826;30.108;2023-06-22T15:18:25;13.13;;;8.57;;
78674;SDS011;67990;59.826;30.108;2023-06-22T15:20:53;14.00;;;8.65;;
78674;SDS011;67990;59.826;30.108;2023-06-22T15:23:21;12.10;;;8.30;;
78674;SDS011;67990;59.826;30.108;2023-06-22T15:25:48;11.90;;;8.17;;
78674;SDS011;67990;59.826;30.108;2023-06-22T15:31:03;13.07;;;8.13;;
78674;SDS011;67990;59.826;30.108;2023-06-22T15:33:47;10.05;;;7.40;;
78674;SDS011;67990;59.826;30.108;2023-06-22T15:36:14;9.60;;;6.82;;
78674;SDS011;67990;59.826;30.108;2023-06-22T15:38:41;9.48;;;6.57;;
78674;SDS011;67990;59.826;30.108;2023-06-22T15:41:26;11.25;;;8.00;;
78674;SDS011;67990;59.826;30.108;2023-06-22T15:43:55;11.30;;;7.60;;
78674;SDS011;67990;59.826;30.108;2023-06-22T15:46:22;13.90;;;7.73;;
78674;SDS011;67990;59.826;30.108;2023-06-22T15:48:49;13.05;;;7.72;;
78674;SDS011;67990;59.826;30.108;2023-06-22T15:51:17;10.98;;;7.97;;
78674;SDS011;67990;59.826;30.108;2023-06-22T15:53:44;11.45;;;7.18;;
78674;SDS011;67990;59.826;30.108;2023-06-22T15:56:12;11.90;;;7.35;;
78674;SDS011;67990;59.826;30.108;2023-06-22T15:58:39;10.17;;;7.43;;
78674;SDS011;67990;59.826;30.108;2023-06-22T16:01:07;10.37;;;6.67;;
78674;SDS011;67990;59.826;30.108;2023-06-22T16:03:35;12.07;;;8.02;;
78674;SDS011;67990;59.826;30.108;2023-06-22T16:06:04;11.20;;;7.93;;
78674;SDS011;67990;59.826;30.108;2023-06-22T16:08:31;14.90;;;8.30;;
78674;SDS011;67990;59.826;30.108;2023-06-22T16:10:59;12.13;;;7.88;;
78674;SDS011;67990;59.826;30.108;2023-06-22T16:13:26;11.30;;;7.13;;
78674;SDS011;67990;59.826;30.108;2023-06-22T16:15:53;10.50;;;7.00;;
78674;SDS011;67990;59.826;30.108;2023-06-22T16:18:22;10.07;;;7.43;;
78674;SDS011;67990;59.826;30.108;2023-06-22T16:21:06;9.98;;;7.22;;
78674;SDS011;67990;59.826;30.108;2023-06-22T16:23:34;10.60;;;7.13;;
78674;SDS011;67990;59.826;30.108;2023-06-22T16:26:01;10.07;;;7.10;;
78674;SDS011;67990;59.826;30.108;2023-06-22T16:29:04;12.30;;;7.07;;
78674;SDS011;67990;59.826;30.108;2023-06-22T16:31:31;10.67;;;7.43;;
78674;SDS011;67990;59.826;30.108;2023-06-22T16:34:00;9.75;;;6.65;;
78674;SDS011;67990;59.826;30.108;2023-06-22T16:36:27;12.20;;;7.47;;